sensor_id;sensor_type;location;lat;lon;timestamp;temperature;humidity
25811;DHT22;13645;52.460;13.910;2023-06-24T00:25:37;17.00;99.90
25811;DHT22;13645;52.460;13.910;2023-06-24T01:48:30;16.40;99.90
25811;DHT22;13645;52.460;13.910;2023-06-24T02:10:01;16.30;99.90
25811;DHT22;13645;52.460;13.910;2023-06-24T02:13:30;16.10;99.90
25811;DHT22;13645;52.460;13.910;2023-06-24T02:16:11;16.10;99.90
25811;DHT22;13645;52.460;13.910;2023-06-24T02:19:21;16.00;99.90
25811;DHT22;13645;52.460;13.910;2023-06-24T02:22:29;16.00;99.90
25811;DHT22;13645;52.460;13.910;2023-06-24T02:25:46;15.90;99.90
25811;DHT22;13645;52.460;13.910;2023-06-24T02:28:51;15.90;99.90
25811;DHT22;13645;52.460;13.910;2023-06-24T02:31:46;15.80;99.90
25811;DHT22;13645;52.460;13.910;2023-06-24T02:34:13;15.80;99.90
25811;DHT22;13645;52.460;13.910;2023-06-24T02:36:41;15.80;99.90
25811;DHT22;13645;52.460;13.910;2023-06-24T02:39:07;15.70;99.90
25811;DHT22;13645;52.460;13.910;2023-06-24T02:41:34;15.70;99.90
25811;DHT22;13645;52.460;13.910;2023-06-24T02:44:02;15.70;99.90
25811;DHT22;13645;52.460;13.910;2023-06-24T02:46:30;15.70;99.90
25811;DHT22;13645;52.460;13.910;2023-06-24T02:49:00;15.70;99.90
25811;DHT22;13645;52.460;13.910;2023-06-24T02:51:27;15.70;99.90
25811;DHT22;13645;52.460;13.910;2023-06-24T02:53:55;15.70;99.90
25811;DHT22;13645;52.460;13.910;2023-06-24T02:56:26;15.70;99.90
25811;DHT22;13645;52.460;13.910;2023-06-24T02:58:53;15.70;99.90
25811;DHT22;13645;52.460;13.910;2023-06-24T03:01:21;15.70;99.90
25811;DHT22;13645;52.460;13.910;2023-06-24T03:03:53;15.70;99.90
25811;DHT22;13645;52.460;13.910;2023-06-24T03:06:22;15.70;99.90
25811;DHT22;13645;52.460;13.910;2023-06-24T03:08:49;15.70;99.90
25811;DHT22;13645;52.460;13.910;2023-06-24T03:11:16;15.70;99.90
25811;DHT22;13645;52.460;13.910;2023-06-24T03:13:43;15.80;99.90
25811;DHT22;13645;52.460;13.910;2023-06-24T03:16:11;15.80;99.90
25811;DHT22;13645;52.460;13.910;2023-06-24T03:18:42;15.80;99.90
25811;DHT22;13645;52.460;13.910;2023-06-24T03:21:10;15.90;99.90
25811;DHT22;13645;52.460;13.910;2023-06-24T03:23:36;16.00;99.90
25811;DHT22;13645;52.460;13.910;2023-06-24T03:26:03;16.00;99.90
25811;DHT22;13645;52.460;13.910;2023-06-24T03:28:30;16.10;99.90
25811;DHT22;13645;52.460;13.910;2023-06-24T03:30:58;16.10;99.90
25811;DHT22;13645;52.460;13.910;2023-06-24T03:33:25;16.10;99.90
25811;DHT22;13645;52.460;13.910;2023-06-24T03:35:53;16.10;99.90
25811;DHT22;13645;52.460;13.910;2023-06-24T03:38:23;16.10;99.90
25811;DHT22;13645;52.460;13.910;2023-06-24T03:40:50;16.10;99.90
25811;DHT22;13645;52.460;13.910;2023-06-24T03:43:16;16.10;99.90
25811;DHT22;13645;52.460;13.910;2023-06-24T03:45:43;16.00;99.90
25811;DHT22;13645;52.460;13.910;2023-06-24T03:48:10;16.00;99.90
25811;DHT22;13645;52.460;13.910;2023-06-24T03:50:37;16.00;99.90
25811;DHT22;13645;52.460;13.910;2023-06-24T03:53:05;16.00;99.90
25811;DHT22;13645;52.460;13.910;2023-06-24T03:55:32;16.00;99.90
25811;DHT22;13645;52.460;13.910;2023-06-24T03:57:59;15.90;99.90
25811;DHT22;13645;52.460;13.910;2023-06-24T04:00:26;15.90;99.90
25811;DHT22;13645;52.460;13.910;2023-06-24T04:02:53;15.90;99.90
25811;DHT22;13645;52.460;13.910;2023-06-24T04:05:20;15.90;99.90
25811;DHT22;13645;52.460;13.910;2023-06-24T04:07:48;15.90;99.90
25811;DHT22;13645;52.460;13.910;2023-06-24T04:10:17;15.90;99.90
25811;DHT22;13645;52.460;13.910;2023-06-24T04:12:45;15.90;99.90
25811;DHT22;13645;52.460;13.910;2023-06-24T04:15:12;15.90;99.90
25811;DHT22;13645;52.460;13.910;2023-06-24T04:17:39;15.80;99.90
25811;DHT22;13645;52.460;13.910;2023-06-24T04:20:06;15.80;99.90
25811;DHT22;13645;52.460;13.910;2023-06-24T04:22:41;15.80;99.90
25811;DHT22;13645;52.460;13.910;2023-06-24T04:25:08;15.80;99.90
25811;DHT22;13645;52.460;13.910;2023-06-24T04:27:35;15.80;99.90
25811;DHT22;13645;52.460;13.910;2023-06-24T04:30:03;15.90;99.90
25811;DHT22;13645;52.460;13.910;2023-06-24T04:32:30;15.90;99.90
25811;DHT22;13645;52.460;13.910;2023-06-24T04:35:00;15.90;99.90
25811;DHT22;13645;52.460;13.910;2023-06-24T04:37:27;16.00;99.90
25811;DHT22;13645;52.460;13.910;2023-06-24T04:39:54;16.10;99.90
25811;DHT22;13645;52.460;13.910;2023-06-24T04:42:21;16.10;99.90
25811;DHT22;13645;52.460;13.910;2023-06-24T04:44:49;16.20;99.90
25811;DHT22;13645;52.460;13.910;2023-06-24T04:47:18;16.20;99.90
25811;DHT22;13645;52.460;13.910;2023-06-24T04:49:45;16.30;99.90
25811;DHT22;13645;52.460;13.910;2023-06-24T04:52:12;16.30;99.90
25811;DHT22;13645;52.460;13.910;2023-06-24T04:54:39;16.40;99.90
25811;DHT22;13645;52.460;13.910;2023-06-24T04:57:09;16.40;99.90
25811;DHT22;13645;52.460;13.910;2023-06-24T04:59:36;16.40;99.90
25811;DHT22;13645;52.460;13.910;2023-06-24T05:02:04;16.40;99.90
25811;DHT22;13645;52.460;13.910;2023-06-24T05:04:31;16.40;99.90
25811;DHT22;13645;52.460;13.910;2023-06-24T05:06:58;16.40;99.90
25811;DHT22;13645;52.460;13.910;2023-06-24T05:09:25;16.40;99.90
25811;DHT22;13645;52.460;13.910;2023-06-24T05:11:52;16.40;99.90
25811;DHT22;13645;52.460;13.910;2023-06-24T05:14:19;16.40;99.90
25811;DHT22;13645;52.460;13.910;2023-06-24T05:16:46;16.50;99.90
25811;DHT22;13645;52.460;13.910;2023-06-24T05:19:12;16.40;99.90
25811;DHT22;13645;52.460;13.910;2023-06-24T05:21:39;16.40;99.90
25811;DHT22;13645;52.460;13.910;2023-06-24T05:24:06;16.40;99.90
25811;DHT22;13645;52.460;13.910;2023-06-24T05:26:33;16.40;99.90
25811;DHT22;13645;52.460;13.910;2023-06-24T05:29:00;16.40;99.90
25811;DHT22;13645;52.460;13.910;2023-06-24T05:31:26;16.50;99.90
25811;DHT22;13645;52.460;13.910;2023-06-24T05:33:53;16.50;99.90
25811;DHT22;13645;52.460;13.910;2023-06-24T05:36:20;16.60;99.90
25811;DHT22;13645;52.460;13.910;2023-06-24T05:38:47;16.60;99.90
25811;DHT22;13645;52.460;13.910;2023-06-24T05:41:15;16.60;99.90
25811;DHT22;13645;52.460;13.910;2023-06-24T05:43:43;16.70;99.90
25811;DHT22;13645;52.460;13.910;2023-06-24T05:46:10;16.80;99.90
25811;DHT22;13645;52.460;13.910;2023-06-24T05:48:37;16.80;99.90
25811;DHT22;13645;52.460;13.910;2023-06-24T05:51:04;16.90;99.90
25811;DHT22;13645;52.460;13.910;2023-06-24T05:53:31;17.00;99.90
25811;DHT22;13645;52.460;13.910;2023-06-24T05:55:57;17.00;99.90
25811;DHT22;13645;52.460;13.910;2023-06-24T05:58:24;17.10;99.90
25811;DHT22;13645;52.460;13.910;2023-06-24T06:00:51;17.20;99.90
25811;DHT22;13645;52.460;13.910;2023-06-24T06:03:18;17.30;99.90
25811;DHT22;13645;52.460;13.910;2023-06-24T06:05:45;17.30;99.90
25811;DHT22;13645;52.460;13.910;2023-06-24T06:08:12;17.30;99.90
25811;DHT22;13645;52.460;13.910;2023-06-24T06:10:39;17.50;99.90
25811;DHT22;13645;52.460;13.910;2023-06-24T06:13:05;17.70;99.90
25811;DHT22;13645;52.460;13.910;2023-06-24T06:15:32;17.80;99.90
25811;DHT22;13645;52.460;13.910;2023-06-24T06:17:59;17.80;99.90
25811;DHT22;13645;52.460;13.910;2023-06-24T06:20:26;17.80;99.90
25811;DHT22;13645;52.460;13.910;2023-06-24T06:22:53;17.80;99.90
25811;DHT22;13645;52.460;13.910;2023-06-24T06:25:20;17.80;99.90
25811;DHT22;13645;52.460;13.910;2023-06-24T06:27:47;17.90;99.90
25811;DHT22;13645;52.460;13.910;2023-06-24T06:30:14;18.00;99.90
25811;DHT22;13645;52.460;13.910;2023-06-24T06:32:41;18.10;99.90
25811;DHT22;13645;52.460;13.910;2023-06-24T06:35:07;18.30;99.90
25811;DHT22;13645;52.460;13.910;2023-06-24T06:37:34;18.30;99.90
25811;DHT22;13645;52.460;13.910;2023-06-24T06:40:02;18.50;99.90
25811;DHT22;13645;52.460;13.910;2023-06-24T06:42:29;18.50;99.90
25811;DHT22;13645;52.460;13.910;2023-06-24T06:44:56;18.50;99.90
25811;DHT22;13645;52.460;13.910;2023-06-24T06:47:23;18.80;99.90
25811;DHT22;13645;52.460;13.910;2023-06-24T06:49:50;18.90;99.90
25811;DHT22;13645;52.460;13.910;2023-06-24T06:52:16;18.80;99.90
25811;DHT22;13645;52.460;13.910;2023-06-24T06:54:43;18.80;99.90
25811;DHT22;13645;52.460;13.910;2023-06-24T06:57:10;18.90;99.90
25811;DHT22;13645;52.460;13.910;2023-06-24T06:59:37;19.00;99.90
25811;DHT22;13645;52.460;13.910;2023-06-24T07:02:04;19.10;99.90
25811;DHT22;13645;52.460;13.910;2023-06-24T07:04:31;19.40;99.90
25811;DHT22;13645;52.460;13.910;2023-06-24T07:06:59;19.60;99.90
25811;DHT22;13645;52.460;13.910;2023-06-24T07:09:26;20.00;99.90
25811;DHT22;13645;52.460;13.910;2023-06-24T07:11:53;20.00;99.90
25811;DHT22;13645;52.460;13.910;2023-06-24T07:14:19;19.80;99.90
25811;DHT22;13645;52.460;13.910;2023-06-24T07:16:46;20.00;99.90
25811;DHT22;13645;52.460;13.910;2023-06-24T07:19:13;20.20;99.90
25811;DHT22;13645;52.460;13.910;2023-06-24T07:21:40;20.50;99.90
25811;DHT22;13645;52.460;13.910;2023-06-24T07:24:07;20.70;99.90
25811;DHT22;13645;52.460;13.910;2023-06-24T07:26:33;20.90;99.90
25811;DHT22;13645;52.460;13.910;2023-06-24T07:29:00;21.20;99.90
25811;DHT22;13645;52.460;13.910;2023-06-24T07:31:35;21.40;99.90
25811;DHT22;13645;52.460;13.910;2023-06-24T07:34:03;21.40;99.90
25811;DHT22;13645;52.460;13.910;2023-06-24T07:36:31;21.40;99.90
25811;DHT22;13645;52.460;13.910;2023-06-24T07:38:57;21.70;99.90
25811;DHT22;13645;52.460;13.910;2023-06-24T07:41:24;21.80;99.90
25811;DHT22;13645;52.460;13.910;2023-06-24T07:43:51;22.10;99.90
25811;DHT22;13645;52.460;13.910;2023-06-24T07:46:18;22.20;99.90
25811;DHT22;13645;52.460;13.910;2023-06-24T07:48:45;22.30;99.90
25811;DHT22;13645;52.460;13.910;2023-06-24T07:51:12;22.40;99.90
25811;DHT22;13645;52.460;13.910;2023-06-24T07:53:39;22.70;99.90
25811;DHT22;13645;52.460;13.910;2023-06-24T07:56:05;22.90;99.90
25811;DHT22;13645;52.460;13.910;2023-06-24T07:58:33;23.00;99.90
25811;DHT22;13645;52.460;13.910;2023-06-24T08:01:00;23.00;99.90
25811;DHT22;13645;52.460;13.910;2023-06-24T08:03:27;23.10;92.40
25811;DHT22;13645;52.460;13.910;2023-06-24T08:05:55;23.20;71.00
25811;DHT22;13645;52.460;13.910;2023-06-24T08:08:23;23.00;99.90
25811;DHT22;13645;52.460;13.910;2023-06-24T08:10:49;23.20;99.90
25811;DHT22;13645;52.460;13.910;2023-06-24T08:13:16;23.20;45.70
25811;DHT22;13645;52.460;13.910;2023-06-24T08:15:43;23.20;63.20
25811;DHT22;13645;52.460;13.910;2023-06-24T08:18:11;23.30;45.30
25811;DHT22;13645;52.460;13.910;2023-06-24T08:20:38;23.30;72.40
25811;DHT22;13645;52.460;13.910;2023-06-24T08:23:05;23.60;53.60
25811;DHT22;13645;52.460;13.910;2023-06-24T08:25:50;23.60;40.80
25811;DHT22;13645;52.460;13.910;2023-06-24T08:28:26;22.80;11.00
25811;DHT22;13645;52.460;13.910;2023-06-24T08:30:59;22.90;54.10
25811;DHT22;13645;52.460;13.910;2023-06-24T08:33:26;23.20;81.00
25811;DHT22;13645;52.460;13.910;2023-06-24T08:35:52;23.40;16.60
25811;DHT22;13645;52.460;13.910;2023-06-24T08:38:19;23.70;21.90
25811;DHT22;13645;52.460;13.910;2023-06-24T08:40:46;23.30;2.80
25811;DHT22;13645;52.460;13.910;2023-06-24T08:43:15;22.60;21.30
25811;DHT22;13645;52.460;13.910;2023-06-24T08:45:42;22.00;83.70
25811;DHT22;13645;52.460;13.910;2023-06-24T08:48:40;22.10;97.00
25811;DHT22;13645;52.460;13.910;2023-06-24T08:51:09;22.80;99.90
25811;DHT22;13645;52.460;13.910;2023-06-24T08:53:38;22.70;17.70
25811;DHT22;13645;52.460;13.910;2023-06-24T08:56:08;22.80;21.50
25811;DHT22;13645;52.460;13.910;2023-06-24T08:58:35;23.10;3.60
25811;DHT22;13645;52.460;13.910;2023-06-24T09:01:02;23.30;25.70
25811;DHT22;13645;52.460;13.910;2023-06-24T09:03:30;23.60;1.00
25811;DHT22;13645;52.460;13.910;2023-06-24T09:05:56;23.20;1.00
25811;DHT22;13645;52.460;13.910;2023-06-24T09:08:23;23.10;1.00
25811;DHT22;13645;52.460;13.910;2023-06-24T09:10:54;23.20;1.00
25811;DHT22;13645;52.460;13.910;2023-06-24T09:13:33;23.30;1.00
25811;DHT22;13645;52.460;13.910;2023-06-24T09:16:00;23.50;1.00
25811;DHT22;13645;52.460;13.910;2023-06-24T09:18:35;23.60;1.00
25811;DHT22;13645;52.460;13.910;2023-06-24T09:21:02;23.90;1.00
25811;DHT22;13645;52.460;13.910;2023-06-24T09:23:29;24.60;1.00
25811;DHT22;13645;52.460;13.910;2023-06-24T09:25:57;24.50;1.00
25811;DHT22;13645;52.460;13.910;2023-06-24T09:28:27;23.80;1.00
25811;DHT22;13645;52.460;13.910;2023-06-24T09:31:08;23.70;1.00
25811;DHT22;13645;52.460;13.910;2023-06-24T09:33:48;24.00;1.00
25811;DHT22;13645;52.460;13.910;2023-06-24T09:36:15;24.40;1.00
25811;DHT22;13645;52.460;13.910;2023-06-24T09:38:43;24.80;1.00
25811;DHT22;13645;52.460;13.910;2023-06-24T09:41:14;24.90;1.00
25811;DHT22;13645;52.460;13.910;2023-06-24T09:43:43;24.70;1.00
25811;DHT22;13645;52.460;13.910;2023-06-24T09:46:12;24.60;1.00
25811;DHT22;13645;52.460;13.910;2023-06-24T09:48:40;24.20;1.00
25811;DHT22;13645;52.460;13.910;2023-06-24T09:51:08;24.40;1.00
25811;DHT22;13645;52.460;13.910;2023-06-24T09:53:35;24.30;1.00
25811;DHT22;13645;52.460;13.910;2023-06-24T09:56:08;24.40;1.00
25811;DHT22;13645;52.460;13.910;2023-06-24T09:58:36;24.70;1.00
25811;DHT22;13645;52.460;13.910;2023-06-24T10:01:05;24.50;1.00
25811;DHT22;13645;52.460;13.910;2023-06-24T10:03:35;24.50;1.00
25811;DHT22;13645;52.460;13.910;2023-06-24T10:06:03;25.00;1.00
25811;DHT22;13645;52.460;13.910;2023-06-24T10:08:30;25.20;1.00
25811;DHT22;13645;52.460;13.910;2023-06-24T10:10:59;25.60;1.00
25811;DHT22;13645;52.460;13.910;2023-06-24T10:13:26;25.70;1.00
25811;DHT22;13645;52.460;13.910;2023-06-24T10:15:54;25.30;1.00
25811;DHT22;13645;52.460;13.910;2023-06-24T10:18:37;25.40;1.00
25811;DHT22;13645;52.460;13.910;2023-06-24T10:21:08;25.60;1.00
25811;DHT22;13645;52.460;13.910;2023-06-24T10:23:43;25.20;1.00
25811;DHT22;13645;52.460;13.910;2023-06-24T10:26:24;25.00;1.00
25811;DHT22;13645;52.460;13.910;2023-06-24T10:29:39;25.00;1.00
25811;DHT22;13645;52.460;13.910;2023-06-24T10:32:09;25.60;99.90
25811;DHT22;13645;52.460;13.910;2023-06-24T10:34:46;25.50;1.00
25811;DHT22;13645;52.460;13.910;2023-06-24T10:39:56;25.80;99.90
25811;DHT22;13645;52.460;13.910;2023-06-24T10:45:01;26.00;99.90
25811;DHT22;13645;52.460;13.910;2023-06-24T10:47:29;25.30;1.00
25811;DHT22;13645;52.460;13.910;2023-06-24T10:49:57;25.60;99.90
25811;DHT22;13645;52.460;13.910;2023-06-24T10:52:24;26.00;1.00
25811;DHT22;13645;52.460;13.910;2023-06-24T10:54:51;26.50;99.90
25811;DHT22;13645;52.460;13.910;2023-06-24T10:57:24;26.50;1.00
25811;DHT22;13645;52.460;13.910;2023-06-24T10:59:52;26.40;99.90
25811;DHT22;13645;52.460;13.910;2023-06-24T11:02:25;26.40;99.90
25811;DHT22;13645;52.460;13.910;2023-06-24T11:05:02;26.40;99.90
25811;DHT22;13645;52.460;13.910;2023-06-24T11:07:31;26.20;1.00
25811;DHT22;13645;52.460;13.910;2023-06-24T11:10:10;26.00;1.00
25811;DHT22;13645;52.460;13.910;2023-06-24T11:12:40;25.70;99.90
25811;DHT22;13645;52.460;13.910;2023-06-24T11:15:09;25.90;1.00
25811;DHT22;13645;52.460;13.910;2023-06-24T11:17:37;26.30;99.90
25811;DHT22;13645;52.460;13.910;2023-06-24T11:20:09;26.60;99.90
25811;DHT22;13645;52.460;13.910;2023-06-24T11:22:36;26.20;99.90
25811;DHT22;13645;52.460;13.910;2023-06-24T11:25:03;26.10;99.90
25811;DHT22;13645;52.460;13.910;2023-06-24T11:27:31;26.60;1.00
25811;DHT22;13645;52.460;13.910;2023-06-24T11:29:59;27.00;1.00
25811;DHT22;13645;52.460;13.910;2023-06-24T11:32:36;27.00;1.00
25811;DHT22;13645;52.460;13.910;2023-06-24T11:35:04;27.00;99.90
25811;DHT22;13645;52.460;13.910;2023-06-24T11:37:32;27.00;99.90
25811;DHT22;13645;52.460;13.910;2023-06-24T11:40:07;27.10;99.90
25811;DHT22;13645;52.460;13.910;2023-06-24T11:42:38;26.80;99.90
25811;DHT22;13645;52.460;13.910;2023-06-24T11:45:08;26.90;92.20
25811;DHT22;13645;52.460;13.910;2023-06-24T11:47:38;26.90;99.90
25811;DHT22;13645;52.460;13.910;2023-06-24T11:50:07;26.70;99.90
25811;DHT22;13645;52.460;13.910;2023-06-24T11:52:42;26.60;1.00
25811;DHT22;13645;52.460;13.910;2023-06-24T11:55:23;26.90;99.90
25811;DHT22;13645;52.460;13.910;2023-06-24T11:58:02;27.10;99.90
25811;DHT22;13645;52.460;13.910;2023-06-24T12:00:36;27.10;1.00
25811;DHT22;13645;52.460;13.910;2023-06-24T12:03:05;27.30;57.20
25811;DHT22;13645;52.460;13.910;2023-06-24T12:05:38;27.30;1.00
25811;DHT22;13645;52.460;13.910;2023-06-24T12:08:11;27.40;99.90
25811;DHT22;13645;52.460;13.910;2023-06-24T12:10:39;27.70;99.90
25811;DHT22;13645;52.460;13.910;2023-06-24T12:13:06;27.70;1.00
25811;DHT22;13645;52.460;13.910;2023-06-24T12:15:35;27.70;99.90
25811;DHT22;13645;52.460;13.910;2023-06-24T12:18:03;27.60;99.90
25811;DHT22;13645;52.460;13.910;2023-06-24T12:20:30;27.60;1.00
25811;DHT22;13645;52.460;13.910;2023-06-24T12:23:02;27.40;1.00
25811;DHT22;13645;52.460;13.910;2023-06-24T12:25:32;27.30;99.90
25811;DHT22;13645;52.460;13.910;2023-06-24T12:27:59;27.30;1.00
25811;DHT22;13645;52.460;13.910;2023-06-24T12:30:27;27.60;1.00
25811;DHT22;13645;52.460;13.910;2023-06-24T12:32:54;27.50;1.00
25811;DHT22;13645;52.460;13.910;2023-06-24T12:35:22;27.50;99.90
25811;DHT22;13645;52.460;13.910;2023-06-24T12:37:52;27.40;99.90
25811;DHT22;13645;52.460;13.910;2023-06-24T12:40:19;27.30;1.00
25811;DHT22;13645;52.460;13.910;2023-06-24T12:42:46;27.00;99.90
25811;DHT22;13645;52.460;13.910;2023-06-24T12:45:13;27.30;1.00
25811;DHT22;13645;52.460;13.910;2023-06-24T12:47:40;27.50;99.90
25811;DHT22;13645;52.460;13.910;2023-06-24T12:50:07;27.80;1.00
25811;DHT22;13645;52.460;13.910;2023-06-24T12:52:36;28.10;99.90
25811;DHT22;13645;52.460;13.910;2023-06-24T12:55:05;27.70;1.00
25811;DHT22;13645;52.460;13.910;2023-06-24T12:57:32;27.30;99.90
25811;DHT22;13645;52.460;13.910;2023-06-24T12:59:59;27.50;1.00
25811;DHT22;13645;52.460;13.910;2023-06-24T13:02:26;27.60;99.90
25811;DHT22;13645;52.460;13.910;2023-06-24T13:04:53;27.60;99.90
25811;DHT22;13645;52.460;13.910;2023-06-24T13:07:20;27.80;1.00
25811;DHT22;13645;52.460;13.910;2023-06-24T13:09:46;28.10;1.00
25811;DHT22;13645;52.460;13.910;2023-06-24T13:12:13;27.80;99.90
25811;DHT22;13645;52.460;13.910;2023-06-24T13:14:40;27.60;99.90
25811;DHT22;13645;52.460;13.910;2023-06-24T13:17:07;27.40;99.90
25811;DHT22;13645;52.460;13.910;2023-06-24T13:19:33;27.60;1.00
25811;DHT22;13645;52.460;13.910;2023-06-24T13:22:00;27.70;99.90
25811;DHT22;13645;52.460;13.910;2023-06-24T13:24:27;27.70;1.00
25811;DHT22;13645;52.460;13.910;2023-06-24T13:26:54;27.70;1.00
25811;DHT22;13645;52.460;13.910;2023-06-24T13:29:21;27.80;1.00
25811;DHT22;13645;52.460;13.910;2023-06-24T13:31:47;28.20;1.00
25811;DHT22;13645;52.460;13.910;2023-06-24T13:34:14;27.80;5.30
25811;DHT22;13645;52.460;13.910;2023-06-24T13:36:41;27.20;99.90
25811;DHT22;13645;52.460;13.910;2023-06-24T13:39:09;27.30;1.00
25811;DHT22;13645;52.460;13.910;2023-06-24T13:41:39;27.50;34.60
25811;DHT22;13645;52.460;13.910;2023-06-24T13:44:06;27.90;99.90
25811;DHT22;13645;52.460;13.910;2023-06-24T13:46:33;27.90;99.90
25811;DHT22;13645;52.460;13.910;2023-06-24T13:49:00;27.90;94.90
25811;DHT22;13645;52.460;13.910;2023-06-24T13:51:31;27.80;99.90
25811;DHT22;13645;52.460;13.910;2023-06-24T13:53:58;27.40;15.30
25811;DHT22;13645;52.460;13.910;2023-06-24T13:56:26;26.90;99.90
25811;DHT22;13645;52.460;13.910;2023-06-24T13:58:54;27.00;99.90
25811;DHT22;13645;52.460;13.910;2023-06-24T14:01:22;27.20;99.90
25811;DHT22;13645;52.460;13.910;2023-06-24T14:03:49;27.40;1.00
25811;DHT22;13645;52.460;13.910;2023-06-24T14:06:18;27.70;99.90
25811;DHT22;13645;52.460;13.910;2023-06-24T14:08:46;28.00;1.00
25811;DHT22;13645;52.460;13.910;2023-06-24T14:11:12;27.90;84.50
25811;DHT22;13645;52.460;13.910;2023-06-24T14:13:40;27.50;99.90
25811;DHT22;13645;52.460;13.910;2023-06-24T14:16:07;27.40;1.00
25811;DHT22;13645;52.460;13.910;2023-06-24T14:18:34;27.50;1.00
25811;DHT22;13645;52.460;13.910;2023-06-24T14:21:03;27.40;99.90
25811;DHT22;13645;52.460;13.910;2023-06-24T14:23:31;27.40;1.00
25811;DHT22;13645;52.460;13.910;2023-06-24T14:26:01;27.50;99.90
25811;DHT22;13645;52.460;13.910;2023-06-24T14:28:29;27.40;99.90
25811;DHT22;13645;52.460;13.910;2023-06-24T14:30:55;27.40;1.00
25811;DHT22;13645;52.460;13.910;2023-06-24T14:33:22;27.60;99.90
25811;DHT22;13645;52.460;13.910;2023-06-24T14:35:49;27.60;99.90
25811;DHT22;13645;52.460;13.910;2023-06-24T14:38:17;27.70;99.90
25811;DHT22;13645;52.460;13.910;2023-06-24T14:40:44;27.30;1.00
25811;DHT22;13645;52.460;13.910;2023-06-24T14:43:11;27.30;1.00
25811;DHT22;13645;52.460;13.910;2023-06-24T14:45:38;27.10;99.90
25811;DHT22;13645;52.460;13.910;2023-06-24T14:48:05;27.30;1.00
25811;DHT22;13645;52.460;13.910;2023-06-24T14:50:32;27.50;99.90
25811;DHT22;13645;52.460;13.910;2023-06-24T14:52:59;27.20;99.90
25811;DHT22;13645;52.460;13.910;2023-06-24T14:55:26;26.80;1.00
25811;DHT22;13645;52.460;13.910;2023-06-24T14:57:53;26.70;1.00
25811;DHT22;13645;52.460;13.910;2023-06-24T15:00:20;26.60;99.90
25811;DHT22;13645;52.460;13.910;2023-06-24T15:02:46;26.60;99.90
25811;DHT22;13645;52.460;13.910;2023-06-24T15:05:13;26.50;1.00
25811;DHT22;13645;52.460;13.910;2023-06-24T15:07:40;26.80;1.00
25811;DHT22;13645;52.460;13.910;2023-06-24T15:10:07;26.80;99.90
25811;DHT22;13645;52.460;13.910;2023-06-24T15:12:34;26.60;1.00
25811;DHT22;13645;52.460;13.910;2023-06-24T15:15:04;26.50;99.90
25811;DHT22;13645;52.460;13.910;2023-06-24T15:17:31;26.40;1.00
25811;DHT22;13645;52.460;13.910;2023-06-24T15:20:01;26.50;98.70
25811;DHT22;13645;52.460;13.910;2023-06-24T15:22:28;26.60;1.00
25811;DHT22;13645;52.460;13.910;2023-06-24T15:24:55;26.80;99.90
25811;DHT22;13645;52.460;13.910;2023-06-24T15:27:22;26.90;1.00
25811;DHT22;13645;52.460;13.910;2023-06-24T15:29:49;27.00;60.20
25811;DHT22;13645;52.460;13.910;2023-06-24T15:32:16;26.90;99.90
25811;DHT22;13645;52.460;13.910;2023-06-24T15:34:43;26.90;1.00
25811;DHT22;13645;52.460;13.910;2023-06-24T15:37:09;26.90;1.00
25811;DHT22;13645;52.460;13.910;2023-06-24T15:39:36;26.70;1.00
25811;DHT22;13645;52.460;13.910;2023-06-24T15:45:46;26.30;99.90
25811;DHT22;13645;52.460;13.910;2023-06-24T15:48:13;26.50;1.00
25811;DHT22;13645;52.460;13.910;2023-06-24T15:50:40;26.40;99.90
25811;DHT22;13645;52.460;13.910;2023-06-24T15:53:07;26.50;31.60
25811;DHT22;13645;52.460;13.910;2023-06-24T15:55:34;26.40;99.90
25811;DHT22;13645;52.460;13.910;2023-06-24T15:58:00;26.40;1.00
25811;DHT22;13645;52.460;13.910;2023-06-24T16:00:27;26.20;99.90
25811;DHT22;13645;52.460;13.910;2023-06-24T16:02:54;25.80;99.90
25811;DHT22;13645;52.460;13.910;2023-06-24T16:05:21;26.00;1.00
25811;DHT22;13645;52.460;13.910;2023-06-24T16:07:48;26.00;99.90
25811;DHT22;13645;52.460;13.910;2023-06-24T16:10:15;26.00;99.90
25811;DHT22;13645;52.460;13.910;2023-06-24T16:12:42;25.90;99.90
25811;DHT22;13645;52.460;13.910;2023-06-24T16:15:09;26.00;99.90
25811;DHT22;13645;52.460;13.910;2023-06-24T16:17:36;26.10;1.00
25811;DHT22;13645;52.460;13.910;2023-06-24T16:20:03;26.20;65.80
25811;DHT22;13645;52.460;13.910;2023-06-24T16:22:30;26.30;1.00
25811;DHT22;13645;52.460;13.910;2023-06-24T16:24:57;26.40;1.00
25811;DHT22;13645;52.460;13.910;2023-06-24T16:27:24;26.30;1.00
25811;DHT22;13645;52.460;13.910;2023-06-24T16:29:51;26.10;99.90
25811;DHT22;13645;52.460;13.910;2023-06-24T16:32:20;26.00;1.00
25811;DHT22;13645;52.460;13.910;2023-06-24T16:34:47;25.90;99.90
25811;DHT22;13645;52.460;13.910;2023-06-24T16:37:14;25.70;1.00
25811;DHT22;13645;52.460;13.910;2023-06-24T16:39:40;25.70;1.00
25811;DHT22;13645;52.460;13.910;2023-06-24T16:42:07;25.80;99.90
25811;DHT22;13645;52.460;13.910;2023-06-24T16:44:34;25.60;99.90
25811;DHT22;13645;52.460;13.910;2023-06-24T16:47:04;25.40;1.00
25811;DHT22;13645;52.460;13.910;2023-06-24T16:49:31;25.40;1.00
25811;DHT22;13645;52.460;13.910;2023-06-24T16:51:58;25.30;99.90
25811;DHT22;13645;52.460;13.910;2023-06-24T16:54:25;25.40;99.90
25811;DHT22;13645;52.460;13.910;2023-06-24T16:56:52;25.40;1.00
25811;DHT22;13645;52.460;13.910;2023-06-24T16:59:19;25.40;1.00
25811;DHT22;13645;52.460;13.910;2023-06-24T17:01:45;25.40;99.90
25811;DHT22;13645;52.460;13.910;2023-06-24T17:04:12;25.50;99.90
25811;DHT22;13645;52.460;13.910;2023-06-24T17:06:39;25.50;99.90
25811;DHT22;13645;52.460;13.910;2023-06-24T17:09:06;25.40;99.90
25811;DHT22;13645;52.460;13.910;2023-06-24T17:11:33;25.40;1.00
25811;DHT22;13645;52.460;13.910;2023-06-24T17:13:59;25.30;1.00
25811;DHT22;13645;52.460;13.910;2023-06-24T17:16:26;25.30;59.00
25811;DHT22;13645;52.460;13.910;2023-06-24T17:18:53;25.30;99.90
25811;DHT22;13645;52.460;13.910;2023-06-24T17:21:20;25.30;99.90
25811;DHT22;13645;52.460;13.910;2023-06-24T17:23:47;25.20;99.90
25811;DHT22;13645;52.460;13.910;2023-06-24T17:26:14;25.20;91.10
25811;DHT22;13645;52.460;13.910;2023-06-24T17:28:40;25.20;1.00
25811;DHT22;13645;52.460;13.910;2023-06-24T17:31:09;25.10;1.00
25811;DHT22;13645;52.460;13.910;2023-06-24T17:33:36;25.10;17.70
25811;DHT22;13645;52.460;13.910;2023-06-24T17:36:03;25.20;99.90
25811;DHT22;13645;52.460;13.910;2023-06-24T17:38:30;25.20;1.00
25811;DHT22;13645;52.460;13.910;2023-06-24T17:40:58;25.20;1.00
25811;DHT22;13645;52.460;13.910;2023-06-24T17:43:24;25.20;1.00